VIJP Airport Information

Runway Information
Runway 09 Length 9177 ft width 148 ft
Elevation 1262 ft Threshold 0 ft Heading 84
Runway 27 Length 9177 ft Width 148 ft
Elevation 1250 ft Threshold 0 ft Heading 264
Runway 15 Length 5223 ft width 148 ft
Elevation 0 ft Threshold 0 ft Heading 144
Runway 33 Length 5223 ft Width 148 ft
Elevation 0 ft Threshold 0 ft Heading 324
Airport Frequencies
Type APP Name APP Frequency 124.3 MHZ
Type ATIS Name ATIS Frequency 126.6 MHZ
Type TWR Name TWR Frequency 125.25 MHZ
Airport Navaids
Type VOR-DME Name Jaipur Frequency 112900 KHZ
Airport Weather Information & NOTAM
ADDS - METARS form results

(2109 UTC 19 September 2020)
Data provider http://aviationweather.gov/metar/data/
 
METAR text: VIJP 192100Z 00000KT 3000 HZ SCT030 SCT100 29/24 Q1003 NOSIG
Conditions at: VIJP (JAIPUR/SANGANER , IN) observed 2100 UTC 19 September 2020
Temperature: 29.0°C (84°F)
Dewpoint: 24.0°C (75°F) [RH = 74%]
Pressure (altimeter): 29.62 inches Hg (1003.0 mb)
Winds: calm
Visibility: 1.86 miles (2.99 km)
Ceiling: at least 12,000 feet AGL
Clouds: scattered clouds at 3000 feet AGL
scattered clouds at 10000 feet AGL
Weather: HZ  (haze)

METAR text: VIJP 192030Z 00000KT 3000 HZ SCT030 SCT100 29/24 Q1003 NOSIG
Conditions at: VIJP (JAIPUR/SANGANER , IN) observed 2030 UTC 19 September 2020
Temperature: 29.0°C (84°F)
Dewpoint: 24.0°C (75°F) [RH = 74%]
Pressure (altimeter): 29.62 inches Hg (1003.0 mb)
Winds: calm
Visibility: 1.86 miles (2.99 km)
Ceiling: at least 12,000 feet AGL
Clouds: scattered clouds at 3000 feet AGL
scattered clouds at 10000 feet AGL
Weather: HZ  (haze)

Forecast for: VIJP (JAIPUR/SANGANER , IN)
Text: TAF VIJP 192000Z 1921/2006 VRB03KT 3000 HZ SCT030 SCT100
Forecast period: 2100 UTC 19 September 2020 to 0400 UTC 20 September 2020
Forecast type: FROM: standard forecast or significant change
Winds: variable direction winds at 3 MPH (3 knots; 1.5 m/s)
Visibility: 1.86 miles (2.99 km)
Ceiling: at least 12,000 feet AGL
Clouds: scattered clouds at 3000 feet AGL
scattered clouds at 10000 feet AGL
Weather: HZ  (haze)
Text: TEMPO 1921/1924 15008KT 2000 -TSRA FEW035CB
Forecast period: 2100 UTC 19 September 2020 to 0000 UTC 20 September 2020
Forecast type: TEMPORARY: The following changes expected for less than half the time period
Winds: from the SSE (150 degrees) at 9 MPH (8 knots; 4.1 m/s)
Visibility: 1.24 miles (2.00 km)
Ceiling: at least 12,000 feet AGL
Clouds: few clouds at 3500 feet AGL
Weather: -TSRA  (light rain associated with thunderstorm(s))
Text: BECMG 2004/2006 05005KT 5000 HZ SCT030 SCT100
Forecast period: 0400 to 0600 UTC 20 September 2020
Forecast type: BECOMING: Conditions expected to become as follows by 0600 UTC 20 September 2020
Winds: from the NE (50 degrees) at 6 MPH (5 knots; 2.6 m/s)
Visibility: 3 miles (5 km)
Ceiling: at least 12,000 feet AGL
Clouds: scattered clouds at 3000 feet AGL
scattered clouds at 10000 feet AGL
Weather: HZ  (haze)